Time;durP1;ratioP1;P1;durP2;ratioP2;P2;SDS_P1;SDS_P2;PMS_P1;PMS_P2;Temp;Humidity;BMP_temperature;BMP_pressure;BME280_temperature;BME280_humidity;BME280_pressure;Samples;Min_cycle;Max_cycle;Signal;HPM_P1;HPM_P2
2022/10/11 00:00:29;;;;;;;29.05;17.35;;;;;;;;;;5051250;28;20017;-65
2022/10/11 00:02:56;;;;;;;25.70;17.05;;;;;;;;;;5050924;28;20053;-65
2022/10/11 00:05:22;;;;;;;28.10;18.38;;;;;;;;;;5050960;28;20025;-67
2022/10/11 00:07:48;;;;;;;24.90;17.88;;;;;;;;;;5033393;28;20029;-66
2022/10/11 00:10:14;;;;;;;31.98;18.40;;;;;;;;;;5033415;28;20032;-65
2022/10/11 00:12:40;;;;;;;25.35;17.33;;;;;;;;;;5050508;28;20029;-65
2022/10/11 00:15:08;;;;;;;28.98;17.45;;;;;;;;;;5050909;28;20104;-67
2022/10/11 00:17:34;;;;;;;23.20;17.25;;;;;;;;;;5051293;28;20025;-67
2022/10/11 00:20:00;;;;;;;25.27;16.90;;;;;;;;;;5050965;28;20029;-67
2022/10/11 00:22:26;;;;;;;26.60;17.58;;;;;;;;;;5033143;28;20029;-66
2022/10/11 00:24:52;;;;;;;26.05;18.45;;;;;;;;;;5050692;28;20542;-66
2022/10/11 00:27:18;;;;;;;24.83;17.90;;;;;;;;;;5050982;28;20457;-66
2022/10/11 00:29:45;;;;;;;27.23;17.25;;;;;;;;;;5051028;28;20072;-66
2022/10/11 00:32:11;;;;;;;28.73;18.45;;;;;;;;;;5051110;28;20159;-67
2022/10/11 00:34:37;;;;;;;29.25;18.10;;;;;;;;;;5051018;28;20028;-66
2022/10/11 00:37:03;;;;;;;27.52;17.63;;;;;;;;;;5050659;28;20066;-65
2022/10/11 00:39:29;;;;;;;27.77;17.77;;;;;;;;;;5054976;28;20096;-66
2022/10/11 00:41:55;;;;;;;25.67;17.35;;;;;;;;;;5055274;28;20028;-66
2022/10/11 00:44:22;;;;;;;29.15;18.75;;;;;;;;;;5039698;28;20088;-65
2022/10/11 00:47:00;;;;;;;26.85;17.08;;;;;;;;;;5058826;28;20035;-66
2022/10/11 00:49:29;;;;;;;25.08;18.35;;;;;;;;;;5040751;28;20489;-67
2022/10/11 00:51:58;;;;;;;26.55;18.80;;;;;;;;;;5056909;28;20044;-65
2022/10/11 00:54:28;;;;;;;33.35;18.83;;;;;;;;;;5054432;28;20073;-66
2022/10/11 00:56:58;;;;;;;26.90;17.63;;;;;;;;;;5054049;28;20025;-66
2022/10/11 00:59:26;;;;;;;30.63;18.90;;;;;;;;;;5054193;28;20496;-68
2022/10/11 01:01:52;;;;;;;25.40;18.00;;;;;;;;;;5036099;28;20060;-66
2022/10/11 01:04:18;;;;;;;35.22;18.70;;;;;;;;;;5035914;28;20056;-67
2022/10/11 01:06:44;;;;;;;31.60;18.20;;;;;;;;;;5035799;28;20025;-67
2022/10/11 01:09:11;;;;;;;26.92;18.92;;;;;;;;;;5054162;28;20017;-68
2022/10/11 01:11:38;;;;;;;25.92;17.75;;;;;;;;;;5053742;28;20079;-66
2022/10/11 01:14:04;;;;;;;27.55;19.08;;;;;;;;;;5053499;28;20619;-66
2022/10/11 01:16:42;;;;;;;28.58;18.67;;;;;;;;;;5053524;28;20025;-66
2022/10/11 01:19:27;;;;;;;27.85;18.17;;;;;;;;;;5035729;28;20036;-67
2022/10/11 01:21:56;;;;;;;25.17;18.02;;;;;;;;;;5053507;28;20029;-67
2022/10/11 01:24:25;;;;;;;24.95;18.02;;;;;;;;;;5053455;28;20017;-68
2022/10/11 01:27:00;;;;;;;26.10;18.70;;;;;;;;;;5053381;28;20079;-66
2022/10/11 01:29:42;;;;;;;25.85;17.92;;;;;;;;;;5053651;28;20358;-66
2022/10/11 01:32:16;;;;;;;24.25;17.85;;;;;;;;;;5035344;28;20025;-66
2022/10/11 01:34:47;;;;;;;24.95;17.77;;;;;;;;;;5053125;28;20025;-67
2022/10/11 01:37:23;;;;;;;27.88;18.15;;;;;;;;;;5053277;28;20491;-65
2022/10/11 01:39:52;;;;;;;32.60;18.88;;;;;;;;;;5053323;28;20481;-67
2022/10/11 01:42:18;;;;;;;23.77;18.05;;;;;;;;;;5053361;28;20031;-67
2022/10/11 01:44:46;;;;;;;32.50;18.58;;;;;;;;;;5035006;28;20032;-67
2022/10/11 01:47:12;;;;;;;29.35;19.98;;;;;;;;;;5052799;28;20036;-65
2022/10/11 01:49:39;;;;;;;25.65;19.05;;;;;;;;;;5052322;28;20021;-66
2022/10/11 01:52:05;;;;;;;27.27;19.42;;;;;;;;;;5052685;28;20119;-67
2022/10/11 01:54:56;;;;;;;28.30;18.90;;;;;;;;;;5034951;28;20163;-67
2022/10/11 01:57:40;;;;;;;24.10;18.70;;;;;;;;;;5053017;28;20024;-67
2022/10/11 02:00:13;;;;;;;26.10;19.17;;;;;;;;;;5052928;28;20504;-67
2022/10/11 02:02:57;;;;;;;25.02;18.98;;;;;;;;;;5035006;28;20374;-68
2022/10/11 02:05:29;;;;;;;25.08;19.35;;;;;;;;;;5052274;28;20048;-68
2022/10/11 02:08:04;;;;;;;26.15;19.20;;;;;;;;;;5052872;28;20504;-67
2022/10/11 02:10:39;;;;;;;26.42;20.17;;;;;;;;;;5053927;28;20040;-64
2022/10/11 02:13:18;;;;;;;31.17;19.85;;;;;;;;;;5053860;28;20029;-64
2022/10/11 02:15:46;;;;;;;28.85;19.13;;;;;;;;;;5035684;28;20429;-66
2022/10/11 02:18:15;;;;;;;25.52;19.88;;;;;;;;;;5036071;28;20063;-66
2022/10/11 02:20:42;;;;;;;27.63;20.20;;;;;;;;;;5053603;28;20036;-63
2022/10/11 02:23:11;;;;;;;30.52;20.60;;;;;;;;;;5035497;28;20481;-66
2022/10/11 02:25:37;;;;;;;29.15;20.25;;;;;;;;;;5052702;28;20032;-65
2022/10/11 02:28:06;;;;;;;31.10;20.90;;;;;;;;;;5052590;28;20063;-66
2022/10/11 02:30:33;;;;;;;26.35;20.27;;;;;;;;;;5034758;28;20728;-66
2022/10/11 02:33:02;;;;;;;27.65;20.40;;;;;;;;;;5051869;28;20031;-66
2022/10/11 02:35:29;;;;;;;30.17;21.08;;;;;;;;;;5034569;28;20163;-66
2022/10/11 02:38:02;;;;;;;28.45;21.67;;;;;;;;;;5052215;28;20025;-66
2022/10/11 02:40:31;;;;;;;28.15;21.60;;;;;;;;;;5052466;28;20017;-67
2022/10/11 02:43:16;;;;;;;28.52;21.70;;;;;;;;;;5052002;28;20095;-66
2022/10/11 02:46:01;;;;;;;26.25;22.23;;;;;;;;;;5052253;28;20396;-66
2022/10/11 02:48:28;;;;;;;29.83;23.35;;;;;;;;;;5034522;28;20032;-63
2022/10/11 02:50:55;;;;;;;27.70;22.60;;;;;;;;;;5052106;28;20029;-66
2022/10/11 02:53:21;;;;;;;32.95;22.45;;;;;;;;;;5051838;28;20101;-67
2022/10/11 02:55:49;;;;;;;29.45;22.48;;;;;;;;;;5051759;28;20021;-67
2022/10/11 02:58:14;;;;;;;25.63;21.88;;;;;;;;;;5052021;28;20108;-66
2022/10/11 03:00:40;;;;;;;28.88;22.83;;;;;;;;;;5033366;28;20060;-65
2022/10/11 03:03:06;;;;;;;28.30;23.67;;;;;;;;;;5050994;28;20035;-66
2022/10/11 03:05:39;;;;;;;32.00;24.10;;;;;;;;;;5051660;28;20029;-66
2022/10/11 03:08:05;;;;;;;29.58;25.30;;;;;;;;;;5051671;28;20040;-66
2022/10/11 03:10:32;;;;;;;30.35;23.38;;;;;;;;;;5051888;28;20017;-67
2022/10/11 03:12:58;;;;;;;32.70;26.10;;;;;;;;;;5051858;28;20536;-63
2022/10/11 03:15:24;;;;;;;31.35;25.00;;;;;;;;;;5051928;28;20029;-64
2022/10/11 03:17:50;;;;;;;32.75;24.75;;;;;;;;;;5033990;28;20127;-64
2022/10/11 03:20:16;;;;;;;30.92;23.77;;;;;;;;;;5051814;28;20025;-66
2022/10/11 03:22:42;;;;;;;39.63;26.48;;;;;;;;;;5051214;28;20400;-64
2022/10/11 03:25:08;;;;;;;29.55;24.85;;;;;;;;;;5050602;28;20025;-64
2022/10/11 03:27:35;;;;;;;30.00;25.70;;;;;;;;;;5051041;28;20422;-64
2022/10/11 03:30:01;;;;;;;29.17;23.20;;;;;;;;;;5033161;28;20483;-65
2022/10/11 03:32:27;;;;;;;30.75;25.00;;;;;;;;;;5050534;28;20504;-64
2022/10/11 03:34:53;;;;;;;31.50;25.63;;;;;;;;;;5050656;28;20025;-65
2022/10/11 03:37:19;;;;;;;29.13;24.48;;;;;;;;;;5050737;28;20112;-68
2022/10/11 03:39:46;;;;;;;30.40;24.10;;;;;;;;;;5050806;28;20041;-66
2022/10/11 03:42:13;;;;;;;31.25;24.38;;;;;;;;;;5050427;28;20024;-64
2022/10/11 03:44:40;;;;;;;29.25;24.95;;;;;;;;;;5050354;28;20106;-66
2022/10/11 03:47:06;;;;;;;35.47;25.15;;;;;;;;;;5050532;28;20025;-64
2022/10/11 03:49:32;;;;;;;28.90;25.58;;;;;;;;;;5050450;28;20032;-66
2022/10/11 03:51:58;;;;;;;32.20;25.50;;;;;;;;;;5073368;22;20045;-58
2022/10/11 03:54:24;;;;;;;30.55;25.38;;;;;;;;;;5033347;28;20400;-62
2022/10/11 03:56:50;;;;;;;30.55;25.88;;;;;;;;;;5034161;28;20027;-62
2022/10/11 03:59:16;;;;;;;34.22;25.95;;;;;;;;;;5052008;28;20040;-60
2022/10/11 04:01:42;;;;;;;34.83;26.98;;;;;;;;;;5051763;28;20037;-60
2022/10/11 04:04:08;;;;;;;34.35;25.63;;;;;;;;;;5051853;28;20021;-61
2022/10/11 04:06:34;;;;;;;31.08;26.10;;;;;;;;;;5033358;28;20033;-61
2022/10/11 04:09:00;;;;;;;31.20;26.13;;;;;;;;;;5051870;28;20021;-61
2022/10/11 04:11:26;;;;;;;29.17;25.95;;;;;;;;;;5051700;28;20384;-62
2022/10/11 04:13:52;;;;;;;36.50;25.73;;;;;;;;;;5033239;28;20032;-60
2022/10/11 04:16:18;;;;;;;30.55;25.33;;;;;;;;;;5034075;28;20116;-60
2022/10/11 04:18:44;;;;;;;28.20;25.08;;;;;;;;;;5051838;28;20052;-62
2022/10/11 04:21:10;;;;;;;31.38;26.95;;;;;;;;;;5033930;28;20025;-59
2022/10/11 04:23:36;;;;;;;29.15;26.05;;;;;;;;;;5051268;28;20367;-62
2022/10/11 04:26:06;;;;;;;33.60;26.23;;;;;;;;;;5051868;28;20021;-61
2022/10/11 04:28:33;;;;;;;30.63;26.10;;;;;;;;;;5051602;28;20021;-59
2022/10/11 04:30:59;;;;;;;31.73;26.25;;;;;;;;;;5051585;28;20017;-60
2022/10/11 04:33:25;;;;;;;31.65;25.55;;;;;;;;;;5051205;28;20385;-62
2022/10/11 04:35:55;;;;;;;31.90;26.92;;;;;;;;;;5051699;28;20017;-62
2022/10/11 04:38:21;;;;;;;31.73;24.88;;;;;;;;;;5051897;28;20022;-61
2022/10/11 04:40:47;;;;;;;37.35;28.02;;;;;;;;;;5051718;28;20028;-60
2022/10/11 04:43:15;;;;;;;32.45;25.80;;;;;;;;;;5051134;28;20388;-61
2022/10/11 04:45:41;;;;;;;32.38;25.60;;;;;;;;;;5033484;28;20420;-60
2022/10/11 04:48:07;;;;;;;35.15;25.75;;;;;;;;;;5051326;28;20128;-62
2022/10/11 04:50:33;;;;;;;31.23;27.38;;;;;;;;;;5051177;28;20087;-61
2022/10/11 04:52:59;;;;;;;32.50;27.35;;;;;;;;;;5051094;28;20029;-61
2022/10/11 04:55:25;;;;;;;32.85;25.83;;;;;;;;;;5051189;28;20030;-61
2022/10/11 04:57:51;;;;;;;29.58;26.38;;;;;;;;;;5051199;28;20092;-61
2022/10/11 05:00:17;;;;;;;30.73;26.30;;;;;;;;;;5033396;28;20063;-60
2022/10/11 05:02:43;;;;;;;29.50;25.60;;;;;;;;;;5051108;28;20445;-62
2022/10/11 05:05:09;;;;;;;34.60;26.85;;;;;;;;;;5033600;28;20084;-61
2022/10/11 05:07:35;;;;;;;30.90;26.58;;;;;;;;;;5033295;28;20025;-62
2022/10/11 05:10:01;;;;;;;29.10;26.02;;;;;;;;;;5051301;28;20021;-65
2022/10/11 05:12:27;;;;;;;31.88;26.60;;;;;;;;;;5033079;28;20029;-62
2022/10/11 05:14:53;;;;;;;31.63;27.65;;;;;;;;;;5032940;28;20022;-62
2022/10/11 05:17:19;;;;;;;34.22;27.23;;;;;;;;;;5051044;28;20021;-61
2022/10/11 05:19:45;;;;;;;33.80;26.30;;;;;;;;;;5050947;28;20124;-62
2022/10/11 05:22:11;;;;;;;34.35;27.23;;;;;;;;;;5050651;28;20051;-63
2022/10/11 05:24:37;;;;;;;39.67;27.63;;;;;;;;;;5051605;28;20035;-62
2022/10/11 05:27:03;;;;;;;33.88;27.63;;;;;;;;;;5036914;28;20017;-58
2022/10/11 05:29:29;;;;;;;33.20;26.77;;;;;;;;;;5054707;28;20477;-62
2022/10/11 05:31:55;;;;;;;32.55;27.20;;;;;;;;;;5054697;28;20075;-60
2022/10/11 05:34:21;;;;;;;33.97;27.98;;;;;;;;;;5054255;28;20040;-63
2022/10/11 05:36:47;;;;;;;33.28;28.90;;;;;;;;;;5054444;28;20473;-63
2022/10/11 05:39:13;;;;;;;30.88;27.63;;;;;;;;;;5037259;28;20021;-62
2022/10/11 05:41:39;;;;;;;30.63;27.13;;;;;;;;;;5054940;28;20063;-63
2022/10/11 05:44:07;;;;;;;32.47;28.52;;;;;;;;;;5051481;28;20028;-62
2022/10/11 05:46:33;;;;;;;33.17;28.73;;;;;;;;;;5054310;28;20025;-63
2022/10/11 05:48:59;;;;;;;33.45;27.35;;;;;;;;;;5053265;28;20380;-63
2022/10/11 05:51:25;;;;;;;31.15;26.90;;;;;;;;;;5034981;28;20108;-59
2022/10/11 05:53:51;;;;;;;31.42;27.55;;;;;;;;;;5053608;28;20052;-63
2022/10/11 05:56:18;;;;;;;35.00;27.27;;;;;;;;;;5053439;28;20025;-63
2022/10/11 05:58:44;;;;;;;30.20;26.90;;;;;;;;;;5053845;28;20017;-61
2022/10/11 06:01:20;;;;;;;33.75;27.33;;;;;;;;;;5053503;28;20032;-59
2022/10/11 06:03:47;;;;;;;35.05;28.08;;;;;;;;;;5053159;28;20066;-62
2022/10/11 06:06:12;;;;;;;35.70;29.13;;;;;;;;;;5053587;28;20029;-62
2022/10/11 06:08:39;;;;;;;31.77;27.88;;;;;;;;;;5035578;28;20032;-62
2022/10/11 06:11:09;;;;;;;32.03;28.65;;;;;;;;;;5053029;28;20020;-61
2022/10/11 06:13:35;;;;;;;32.70;28.15;;;;;;;;;;5052738;28;20032;-61
2022/10/11 06:16:03;;;;;;;35.80;28.48;;;;;;;;;;5035783;28;20021;-62
2022/10/11 06:18:30;;;;;;;33.92;29.63;;;;;;;;;;5051575;28;20028;-62
2022/10/11 06:20:57;;;;;;;33.47;29.88;;;;;;;;;;5035663;28;20039;-61
2022/10/11 06:23:23;;;;;;;36.90;29.42;;;;;;;;;;5052912;28;20069;-62
2022/10/11 06:26:18;;;;;;;32.42;28.58;;;;;;;;;;5053201;28;20067;-62
2022/10/11 06:28:44;;;;;;;34.20;30.55;;;;;;;;;;5022852;28;20057;-59
2022/10/11 06:31:11;;;;;;;37.25;29.92;;;;;;;;;;5053172;28;20443;-62
2022/10/11 06:33:37;;;;;;;32.25;26.95;;;;;;;;;;5052906;28;20033;-61
2022/10/11 06:36:07;;;;;;;34.30;27.38;;;;;;;;;;5035028;28;20021;-62
2022/10/11 06:38:33;;;;;;;29.98;25.35;;;;;;;;;;5053145;28;20021;-62
2022/10/11 06:41:09;;;;;;;31.45;26.75;;;;;;;;;;5052916;28;20090;-62
2022/10/11 06:43:35;;;;;;;32.05;27.27;;;;;;;;;;5041395;28;20388;-61
2022/10/11 06:46:01;;;;;;;32.53;27.20;;;;;;;;;;5015262;28;20124;-61
2022/10/11 06:48:30;;;;;;;33.80;28.17;;;;;;;;;;5015548;28;20068;-62
2022/10/11 06:50:57;;;;;;;30.67;27.35;;;;;;;;;;5015116;28;20039;-61
2022/10/11 06:53:23;;;;;;;33.45;26.73;;;;;;;;;;5032408;28;20021;-60
2022/10/11 06:55:49;;;;;;;31.15;26.63;;;;;;;;;;5015286;28;20051;-64
2022/10/11 06:58:15;;;;;;;36.05;26.77;;;;;;;;;;5015480;28;20030;-62
2022/10/11 07:00:41;;;;;;;32.13;27.40;;;;;;;;;;5032855;28;20447;-61
2022/10/11 07:03:07;;;;;;;33.78;26.83;;;;;;;;;;5032346;28;20022;-58
2022/10/11 07:05:34;;;;;;;30.98;27.77;;;;;;;;;;5015266;28;20390;-63
2022/10/11 07:08:00;;;;;;;29.92;26.73;;;;;;;;;;5033074;28;20044;-67
2022/10/11 07:10:26;;;;;;;30.88;27.55;;;;;;;;;;5032854;28;20045;-62
2022/10/11 07:12:52;;;;;;;30.55;27.48;;;;;;;;;;5032300;28;20021;-62
2022/10/11 07:15:18;;;;;;;33.08;27.15;;;;;;;;;;5032104;28;20022;-63
2022/10/11 07:17:45;;;;;;;31.13;27.33;;;;;;;;;;5042857;28;20025;-63
2022/10/11 07:20:11;;;;;;;35.35;30.23;;;;;;;;;;5033305;28;20028;-63
2022/10/11 07:22:37;;;;;;;37.55;33.10;;;;;;;;;;5034437;28;20116;-61
2022/10/11 07:25:03;;;;;;;33.50;29.40;;;;;;;;;;5051970;28;20048;-63
2022/10/11 07:27:29;;;;;;;31.52;28.05;;;;;;;;;;5052128;28;20037;-63
2022/10/11 07:29:55;;;;;;;37.17;30.38;;;;;;;;;;5051706;28;20021;-63
2022/10/11 07:32:21;;;;;;;31.80;28.60;;;;;;;;;;5050674;28;20032;-63
2022/10/11 07:34:47;;;;;;;35.67;29.23;;;;;;;;;;5051704;28;20036;-64
2022/10/11 07:37:13;;;;;;;34.72;28.20;;;;;;;;;;5051813;28;20452;-63
2022/10/11 07:39:39;;;;;;;33.58;29.10;;;;;;;;;;5051795;28;20397;-63
2022/10/11 07:42:07;;;;;;;31.42;27.15;;;;;;;;;;5051696;28;20021;-61
2022/10/11 07:44:33;;;;;;;33.13;27.95;;;;;;;;;;5038810;28;20048;-64
2022/10/11 07:46:59;;;;;;;31.20;28.00;;;;;;;;;;5031289;28;20029;-64
2022/10/11 07:49:25;;;;;;;29.00;26.10;;;;;;;;;;5032218;28;20036;-64
2022/10/11 07:51:51;;;;;;;34.45;28.45;;;;;;;;;;5035557;28;20029;-55
2022/10/11 07:54:17;;;;;;;32.03;27.70;;;;;;;;;;5050090;28;20419;-55
2022/10/11 07:56:43;;;;;;;30.42;27.33;;;;;;;;;;5053653;28;20021;-56
2022/10/11 07:59:10;;;;;;;29.63;26.75;;;;;;;;;;5051155;28;20033;-56
2022/10/11 08:01:36;;;;;;;30.08;26.83;;;;;;;;;;5051204;28;20025;-53
2022/10/11 08:04:02;;;;;;;31.33;27.92;;;;;;;;;;5033137;28;20456;-55
2022/10/11 08:06:31;;;;;;;29.80;26.55;;;;;;;;;;5051342;28;20037;-53
2022/10/11 08:08:57;;;;;;;;;;;;;;;;;;5052062;28;20322;-63
2022/10/11 08:11:28;;;;;;;29.30;26.50;;;;;;;;;;5051813;28;19935;-60
2022/10/11 08:13:54;;;;;;;28.70;25.90;;;;;;;;;;5033393;28;20444;-63
2022/10/11 08:16:20;;;;;;;32.10;28.10;;;;;;;;;;5050456;28;20469;-63
2022/10/11 08:18:46;;;;;;;29.02;26.13;;;;;;;;;;5051128;28;20029;-64
2022/10/11 08:21:13;;;;;;;28.52;25.65;;;;;;;;;;5051259;28;20075;-64
2022/10/11 08:23:39;;;;;;;31.02;27.70;;;;;;;;;;5050746;28;20056;-63
2022/10/11 08:26:06;;;;;;;29.45;26.25;;;;;;;;;;5050793;28;20075;-64
2022/10/11 08:28:32;;;;;;;28.67;25.20;;;;;;;;;;5033248;28;20603;-65
2022/10/11 08:30:58;;;;;;;29.55;24.75;;;;;;;;;;5051258;28;20041;-65
2022/10/11 08:33:25;;;;;;;30.38;24.65;;;;;;;;;;5050703;28;20027;-65
2022/10/11 08:35:51;;;;;;;27.20;22.10;;;;;;;;;;5051150;28;20048;-64
2022/10/11 08:38:17;;;;;;;24.98;21.10;;;;;;;;;;5051186;28;20476;-63
2022/10/11 08:41:01;;;;;;;30.55;25.15;;;;;;;;;;5033350;28;20021;-63
2022/10/11 08:43:27;;;;;;;26.40;22.38;;;;;;;;;;5047584;28;20029;-63
2022/10/11 08:45:55;;;;;;;30.17;24.00;;;;;;;;;;5032358;28;20029;-64
2022/10/11 08:48:34;;;;;;;24.77;22.17;;;;;;;;;;5034705;28;20025;-63
2022/10/11 08:51:00;;;;;;;25.88;23.17;;;;;;;;;;5016495;28;20040;-65
2022/10/11 08:53:38;;;;;;;26.45;22.35;;;;;;;;;;5033877;28;20044;-63
2022/10/11 08:56:05;;;;;;;26.65;21.27;;;;;;;;;;5034872;28;20065;-64
2022/10/11 08:58:39;;;;;;;23.92;21.08;;;;;;;;;;5033366;28;20033;-66
2022/10/11 09:01:06;;;;;;;25.13;21.67;;;;;;;;;;5018148;28;20088;-64
2022/10/11 09:03:40;;;;;;;26.33;20.92;;;;;;;;;;5017272;28;20083;-63
2022/10/11 09:06:06;;;;;;;32.28;19.52;;;;;;;;;;5034642;28;20497;-63
2022/10/11 09:08:41;;;;;;;25.85;18.05;;;;;;;;;;5035272;28;20116;-64
2022/10/11 09:11:15;;;;;;;25.95;18.83;;;;;;;;;;5017937;28;20112;-63
2022/10/11 09:13:52;;;;;;;21.52;17.45;;;;;;;;;;5035002;28;20029;-62
2022/10/11 09:16:21;;;;;;;24.60;17.25;;;;;;;;;;5017487;28;20108;-64
2022/10/11 09:18:47;;;;;;;24.15;17.02;;;;;;;;;;5035055;28;20021;-64
2022/10/11 09:21:22;;;;;;;27.30;18.00;;;;;;;;;;5035324;28;20055;-63
2022/10/11 09:23:48;;;;;;;21.83;17.35;;;;;;;;;;5034678;28;20021;-63
2022/10/11 09:26:17;;;;;;;23.00;17.25;;;;;;;;;;5035082;28;20555;-63
2022/10/11 09:28:46;;;;;;;22.25;16.85;;;;;;;;;;5034763;28;20057;-63
2022/10/11 09:31:12;;;;;;;23.58;18.13;;;;;;;;;;5016942;28;20092;-63
2022/10/11 09:33:45;;;;;;;23.35;16.60;;;;;;;;;;5034514;28;20436;-63
2022/10/11 09:36:22;;;;;;;23.30;15.35;;;;;;;;;;5017201;28;20425;-63
2022/10/11 09:38:51;;;;;;;26.30;17.63;;;;;;;;;;5034615;28;20386;-60
2022/10/11 09:41:21;;;;;;;22.15;16.35;;;;;;;;;;5016741;28;20029;-64
2022/10/11 09:43:48;;;;;;;21.48;16.20;;;;;;;;;;5034045;28;20022;-63
2022/10/11 09:46:29;;;;;;;23.73;17.20;;;;;;;;;;5034259;28;20032;-63
2022/10/11 09:48:56;;;;;;;24.33;15.57;;;;;;;;;;5034398;28;20049;-64
2022/10/11 09:51:24;;;;;;;24.00;15.85;;;;;;;;;;5034608;28;20029;-63
2022/10/11 09:53:52;;;;;;;21.25;15.02;;;;;;;;;;5089351;22;20502;-70
2022/10/11 09:56:19;;;;;;;24.50;15.80;;;;;;;;;;5073593;28;20028;-69
2022/10/11 09:58:45;;;;;;;21.25;16.20;;;;;;;;;;5074405;28;20101;-69
2022/10/11 10:01:13;;;;;;;22.98;16.13;;;;;;;;;;5073464;28;20024;-69
2022/10/11 10:03:42;;;;;;;23.73;15.75;;;;;;;;;;5073103;28;20024;-70
2022/10/11 10:06:16;;;;;;;33.38;16.35;;;;;;;;;;5074163;28;20024;-69
2022/10/11 10:08:45;;;;;;;22.27;16.17;;;;;;;;;;5074175;28;20437;-70
2022/10/11 10:11:12;;;;;;;23.48;15.73;;;;;;;;;;5073274;28;20476;-69
2022/10/11 10:13:49;;;;;;;23.00;15.55;;;;;;;;;;5072893;28;20072;-71
2022/10/11 10:16:29;;;;;;;26.38;15.85;;;;;;;;;;5074108;28;20032;-69
2022/10/11 10:18:59;;;;;;;26.63;14.75;;;;;;;;;;5072858;28;20071;-68
2022/10/11 10:21:28;;;;;;;21.73;13.90;;;;;;;;;;5072619;28;20024;-69
2022/10/11 10:23:55;;;;;;;22.75;13.60;;;;;;;;;;5073772;28;20388;-70
2022/10/11 10:26:24;;;;;;;20.13;10.57;;;;;;;;;;5072937;28;20029;-69
2022/10/11 10:28:58;;;;;;;23.23;11.32;;;;;;;;;;5072879;28;20116;-69
2022/10/11 10:31:29;;;;;;;18.27;10.77;;;;;;;;;;5074056;28;20044;-70
2022/10/11 10:33:55;;;;;;;20.48;10.23;;;;;;;;;;5073457;28;20492;-68
2022/10/11 10:36:23;;;;;;;21.73;10.38;;;;;;;;;;5072595;28;20028;-69
2022/10/11 10:39:00;;;;;;;19.55;11.20;;;;;;;;;;5072507;28;20040;-69
2022/10/11 10:41:26;;;;;;;19.33;10.45;;;;;;;;;;5073350;28;20017;-68
2022/10/11 10:43:54;;;;;;;20.83;10.73;;;;;;;;;;5066344;28;20025;-69
2022/10/11 10:46:20;;;;;;;18.77;10.10;;;;;;;;;;5052736;28;20029;-68
2022/10/11 10:48:49;;;;;;;22.83;10.55;;;;;;;;;;5054439;28;20036;-69
2022/10/11 10:51:22;;;;;;;20.15;10.05;;;;;;;;;;5054061;28;20044;-68
2022/10/11 10:53:53;;;;;;;22.27;10.82;;;;;;;;;;5052566;28;20052;-69
2022/10/11 10:56:33;;;;;;;22.58;11.02;;;;;;;;;;5053801;28;20021;-68
2022/10/11 10:59:01;;;;;;;22.45;10.52;;;;;;;;;;5053260;28;20028;-69
2022/10/11 11:01:37;;;;;;;19.98;10.63;;;;;;;;;;5052204;28;20105;-69
2022/10/11 11:04:24;;;;;;;19.90;10.75;;;;;;;;;;5055935;28;20021;-68
2022/10/11 11:06:54;;;;;;;24.30;11.55;;;;;;;;;;5055113;28;20051;-69
2022/10/11 11:09:32;;;;;;;23.75;11.80;;;;;;;;;;5053104;28;20025;-70
2022/10/11 11:11:58;;;;;;;22.58;13.25;;;;;;;;;;5052772;28;20025;-69
2022/10/11 11:14:24;;;;;;;19.70;12.30;;;;;;;;;;5052889;28;20484;-68
2022/10/11 11:17:01;;;;;;;21.25;11.90;;;;;;;;;;5052953;28;20024;-69
2022/10/11 11:19:33;;;;;;;24.05;13.13;;;;;;;;;;5053066;28;20036;-69
2022/10/11 11:22:18;;;;;;;22.55;12.77;;;;;;;;;;5052269;28;20162;-68
2022/10/11 11:24:44;;;;;;;19.83;12.70;;;;;;;;;;5051062;28;20017;-67
2022/10/11 11:27:29;;;;;;;21.33;13.48;;;;;;;;;;5051673;28;20033;-68
2022/10/11 11:29:55;;;;;;;20.35;12.65;;;;;;;;;;5052970;28;20071;-66
2022/10/11 11:32:39;;;;;;;20.02;13.25;;;;;;;;;;5051609;28;20021;-74
2022/10/11 11:35:09;;;;;;;20.60;13.60;;;;;;;;;;5051234;28;20116;-67
2022/10/11 11:37:38;;;;;;;20.95;13.70;;;;;;;;;;5051471;28;20116;-68
2022/10/11 11:40:04;;;;;;;;;;;;;;;;;;5051678;28;20476;-67
2022/10/11 11:42:42;;;;;;;19.75;13.07;;;;;;;;;;5051343;28;20022;-68
2022/10/11 11:45:18;;;;;;;19.25;13.30;;;;;;;;;;5052616;28;20029;-68
2022/10/11 11:47:46;;;;;;;21.38;13.52;;;;;;;;;;5052522;28;20032;-68
2022/10/11 11:50:21;;;;;;;26.75;21.45;;;;;;;;;;5052180;28;20028;-68
2022/10/11 11:52:55;;;;;;;20.42;13.43;;;;;;;;;;5050526;28;20482;-70
2022/10/11 11:55:32;;;;;;;19.20;13.40;;;;;;;;;;5050772;28;20028;-67
2022/10/11 11:58:04;;;;;;;17.55;12.35;;;;;;;;;;5050851;28;20025;-69
2022/10/11 12:00:33;;;;;;;20.85;12.90;;;;;;;;;;5050768;28;20416;-69
2022/10/11 12:03:10;;;;;;;21.23;12.68;;;;;;;;;;5052272;28;20559;-69
2022/10/11 12:05:37;;;;;;;21.75;13.43;;;;;;;;;;5052278;28;20048;-70
2022/10/11 12:08:07;;;;;;;19.50;13.50;;;;;;;;;;5052424;28;20595;-70
2022/10/11 12:10:36;;;;;;;19.85;12.32;;;;;;;;;;5052787;28;20021;-70
2022/10/11 12:13:06;;;;;;;22.27;12.40;;;;;;;;;;5051114;28;20112;-67
2022/10/11 12:15:32;;;;;;;22.52;15.02;;;;;;;;;;5052983;28;20056;-68
2022/10/11 12:17:58;;;;;;;22.17;14.38;;;;;;;;;;5052158;28;20017;-68
2022/10/11 12:20:26;;;;;;;24.55;16.83;;;;;;;;;;5053101;28;20389;-68
2022/10/11 12:22:53;;;;;;;21.42;13.50;;;;;;;;;;5051562;28;20140;-68
2022/10/11 12:25:22;;;;;;;17.45;12.50;;;;;;;;;;5052232;28;20032;-68
2022/10/11 12:27:48;;;;;;;17.25;12.20;;;;;;;;;;5052497;28;20048;-68
2022/10/11 12:30:33;;;;;;;20.42;12.45;;;;;;;;;;5051387;28;20025;-69
2022/10/11 12:33:05;;;;;;;24.00;16.63;;;;;;;;;;5050525;28;20035;-69
2022/10/11 12:35:32;;;;;;;19.88;13.00;;;;;;;;;;5055865;28;20017;-69
2022/10/11 12:38:13;;;;;;;19.55;13.15;;;;;;;;;;5054253;28;20082;-68
2022/10/11 12:40:40;;;;;;;20.13;13.68;;;;;;;;;;5056151;28;20025;-69
2022/10/11 12:43:15;;;;;;;21.45;12.82;;;;;;;;;;5056373;28;20388;-67
2022/10/11 12:45:46;;;;;;;20.70;12.90;;;;;;;;;;5068406;28;20036;-68
2022/10/11 12:48:16;;;;;;;19.55;13.10;;;;;;;;;;5063899;28;20477;-66
2022/10/11 12:50:51;;;;;;;23.65;15.95;;;;;;;;;;5066187;28;20040;-68
2022/10/11 12:53:23;;;;;;;20.58;14.50;;;;;;;;;;5073422;28;20025;-68
2022/10/11 12:56:02;;;;;;;23.55;13.32;;;;;;;;;;5058337;28;20052;-68
2022/10/11 12:58:40;;;;;;;19.55;13.35;;;;;;;;;;5054712;28;20035;-68
2022/10/11 13:01:06;;;;;;;;;;;;;;;;;;5067024;28;20381;-68
2022/10/11 13:03:44;;;;;;;21.52;12.10;;;;;;;;;;5061861;28;20383;-67
2022/10/11 13:06:10;;;;;;;;;;;;;;;;;;5063347;28;20090;-68
2022/10/11 13:08:38;;;;;;;19.75;12.20;;;;;;;;;;5065320;28;20004;-68
2022/10/11 13:11:05;;;;;;;19.92;12.75;;;;;;;;;;5062658;28;20021;-69
2022/10/11 13:13:38;;;;;;;24.80;13.43;;;;;;;;;;5061388;28;20040;-69
2022/10/11 13:16:07;;;;;;;25.35;18.75;;;;;;;;;;5055058;28;20267;-68
2022/10/11 13:18:34;;;;;;;21.05;14.27;;;;;;;;;;5064629;28;20115;-69
2022/10/11 13:21:00;;;;;;;22.20;14.38;;;;;;;;;;5076415;28;20091;-68
2022/10/11 13:23:28;;;;;;;18.77;12.80;;;;;;;;;;5075800;28;20025;-68
2022/10/11 13:25:54;;;;;;;18.15;13.30;;;;;;;;;;5058571;28;20028;-69
2022/10/11 13:28:21;;;;;;;22.13;13.38;;;;;;;;;;5056252;28;20161;-69
2022/10/11 13:30:48;;;;;;;24.95;16.38;;;;;;;;;;5055283;28;20377;-68
2022/10/11 13:33:41;;;;;;;18.70;13.32;;;;;;;;;;5055872;28;20039;-68
2022/10/11 13:36:11;;;;;;;18.23;13.60;;;;;;;;;;4708841;28;10000285;-68
2022/10/11 13:38:39;;;;;;;19.48;14.40;;;;;;;;;;5055364;28;20032;-69
2022/10/11 13:41:07;;;;;;;20.75;14.55;;;;;;;;;;5060171;28;20052;-67
2022/10/11 13:43:33;;;;;;;;;;;;;;;;;;5066454;28;20028;-68
2022/10/11 13:46:00;;;;;;;18.55;12.77;;;;;;;;;;5056784;28;20277;-66
2022/10/11 13:48:26;;;;;;;19.48;13.05;;;;;;;;;;5057854;28;20033;-67
2022/10/11 13:51:11;;;;;;;23.25;17.55;;;;;;;;;;5063212;28;20023;-67
2022/10/11 13:53:37;;;;;;;21.98;16.70;;;;;;;;;;5059174;28;20106;-67
2022/10/11 13:56:05;;;;;;;22.55;13.38;;;;;;;;;;5055379;28;20501;-67
2022/10/11 13:58:34;;;;;;;19.98;13.98;;;;;;;;;;5054958;28;20473;-68
2022/10/11 14:01:02;;;;;;;25.23;19.10;;;;;;;;;;5054943;28;20103;-65
2022/10/11 14:03:42;;;;;;;22.45;16.08;;;;;;;;;;5055113;28;20028;-67
2022/10/11 14:06:09;;;;;;;19.85;12.57;;;;;;;;;;5057706;28;20460;-67
2022/10/11 14:08:37;;;;;;;20.48;13.27;;;;;;;;;;5071466;28;20526;-68
2022/10/11 14:11:04;;;;;;;19.85;13.00;;;;;;;;;;5057396;28;20021;-66
2022/10/11 14:13:34;;;;;;;19.20;13.52;;;;;;;;;;5054760;28;20029;-68
2022/10/11 14:16:02;;;;;;;19.35;12.80;;;;;;;;;;5060891;28;20021;-69
2022/10/11 14:18:46;;;;;;;20.65;13.88;;;;;;;;;;5068332;28;20028;-68
2022/10/11 14:21:18;;;;;;;22.30;12.80;;;;;;;;;;5054050;28;20036;-66
2022/10/11 14:23:47;;;;;;;18.88;13.43;;;;;;;;;;5054360;28;20039;-67
2022/10/11 14:26:13;;;;;;;21.38;15.35;;;;;;;;;;5056298;28;20087;-69
2022/10/11 14:28:39;;;;;;;20.60;12.82;;;;;;;;;;5051479;28;20044;-65